createdAt,value
2018-10-17T00:00:24.162Z,12.27
2018-10-17T00:02:51.128Z,12.97
2018-10-17T00:05:21.199Z,11.93
2018-10-17T00:07:48.126Z,13.00
2018-10-17T00:10:15.090Z,13.80
2018-10-17T00:12:42.094Z,12.43
2018-10-17T00:15:10.963Z,14.97
2018-10-17T00:17:38.866Z,14.33
2018-10-17T00:20:06.799Z,14.90
2018-10-17T00:22:35.671Z,14.70
2018-10-17T00:25:02.624Z,17.10
2018-10-17T00:27:29.518Z,15.60
2018-10-17T00:29:56.486Z,15.53
2018-10-17T00:32:23.475Z,13.70
2018-10-17T00:34:50.441Z,14.70
2018-10-17T00:37:25.819Z,14.30
2018-10-17T00:39:53.722Z,14.67
2018-10-17T00:42:21.736Z,14.37
2018-10-17T00:44:48.582Z,14.47
2018-10-17T00:47:15.632Z,13.83
2018-10-17T00:49:42.501Z,13.87
2018-10-17T00:52:09.490Z,14.60
2018-10-17T00:54:36.496Z,14.23
2018-10-17T00:57:04.425Z,13.33
2018-10-17T00:59:31.299Z,14.90
2018-10-17T01:01:59.186Z,15.03
2018-10-17T01:04:30.632Z,13.87
2018-10-17T01:06:57.546Z,14.33
2018-10-17T01:09:24.518Z,13.07
2018-10-17T01:11:51.479Z,14.07
2018-10-17T01:14:18.446Z,13.13
2018-10-17T01:16:46.364Z,13.93
2018-10-17T01:19:13.390Z,13.23
2018-10-17T01:21:40.296Z,13.93
2018-10-17T01:24:07.250Z,14.07
2018-10-17T01:26:34.122Z,13.10
2018-10-17T01:29:01.025Z,12.40
2018-10-17T01:31:27.991Z,13.60
2018-10-17T01:33:56.886Z,13.30
2018-10-17T01:36:23.870Z,15.70
2018-10-17T01:38:50.817Z,14.83
2018-10-17T01:41:18.819Z,14.27
2018-10-17T01:43:45.586Z,15.23
2018-10-17T01:46:15.619Z,15.23
2018-10-17T01:48:43.517Z,13.77
2018-10-17T01:51:10.414Z,14.60
2018-10-17T01:53:37.376Z,13.83
2018-10-17T01:56:04.682Z,14.30
2018-10-17T01:58:31.551Z,12.73
2018-10-17T02:00:59.515Z,14.33
2018-10-17T02:03:26.474Z,13.13
2018-10-17T02:05:53.484Z,12.50
2018-10-17T02:08:21.719Z,12.67
2018-10-17T02:13:47.123Z,12.93
2018-10-17T02:16:17.666Z,14.47
2018-10-17T02:18:44.641Z,15.50
2018-10-17T02:21:13.523Z,14.17
2018-10-17T02:23:47.977Z,12.17
2018-10-17T02:26:14.994Z,12.33
2018-10-17T02:28:43.849Z,13.17
2018-10-17T02:31:10.841Z,12.23
2018-10-17T02:33:37.750Z,14.00
2018-10-17T02:36:08.090Z,11.80
2018-10-17T02:38:45.001Z,12.77
2018-10-17T02:41:26.139Z,12.00
2018-10-17T02:43:58.406Z,15.50
2018-10-17T02:46:25.258Z,12.87
2018-10-17T02:48:52.125Z,12.73
2018-10-17T02:51:18.971Z,12.20
2018-10-17T02:53:45.847Z,11.57
2018-10-17T02:56:12.725Z,11.50
2018-10-17T02:58:39.581Z,12.37
2018-10-17T03:01:06.516Z,12.93
2018-10-17T03:03:33.299Z,13.17
2018-10-17T03:06:00.185Z,12.80
2018-10-17T03:08:34.279Z,13.13
2018-10-17T03:11:01.165Z,12.77
2018-10-17T03:13:27.992Z,11.83
2018-10-17T03:15:54.830Z,12.70
2018-10-17T03:18:21.684Z,12.20
2018-10-17T03:20:48.541Z,13.13
2018-10-17T03:23:15.429Z,14.25
2018-10-17T03:25:42.214Z,13.17
2018-10-17T03:28:09.085Z,13.27
2018-10-17T03:30:35.916Z,13.50
2018-10-17T03:33:02.758Z,14.80
2018-10-17T03:35:29.651Z,16.17
2018-10-17T03:37:56.507Z,16.55
2018-10-17T03:40:23.371Z,15.10
2018-10-17T03:42:50.223Z,14.30
2018-10-17T03:45:17.072Z,14.50
2018-10-17T03:47:43.896Z,14.57
2018-10-17T03:50:10.743Z,12.03
2018-10-17T03:52:37.606Z,14.07
2018-10-17T03:55:04.565Z,14.30
2018-10-17T03:57:31.386Z,13.07
2018-10-17T03:59:58.227Z,12.97
2018-10-17T04:02:25.069Z,13.80
2018-10-17T04:04:51.989Z,13.60
2018-10-17T04:07:18.924Z,15.57
2018-10-17T04:09:45.751Z,13.77
2018-10-17T04:12:12.682Z,15.70
2018-10-17T04:14:39.623Z,14.07
2018-10-17T04:17:06.523Z,13.10
2018-10-17T04:19:33.315Z,14.47
2018-10-17T04:22:00.270Z,13.20
2018-10-17T04:24:27.191Z,13.80
2018-10-17T04:26:54.039Z,13.17
2018-10-17T04:29:20.990Z,12.73
2018-10-17T04:31:47.927Z,11.80
2018-10-17T04:34:14.893Z,12.93
2018-10-17T04:36:41.819Z,12.30
2018-10-17T04:39:10.087Z,12.30
2018-10-17T04:41:36.942Z,12.73
2018-10-17T04:44:04.566Z,12.00
2018-10-17T04:46:31.443Z,12.33
2018-10-17T04:48:58.482Z,11.97
2018-10-17T04:51:25.467Z,12.77
2018-10-17T04:53:52.386Z,12.40
2018-10-17T04:56:19.326Z,12.93
2018-10-17T04:58:46.168Z,12.90
2018-10-17T05:01:13.170Z,11.43
2018-10-17T05:03:39.971Z,11.47
2018-10-17T05:06:06.808Z,12.93
2018-10-17T05:08:33.656Z,13.10
2018-10-17T05:11:00.556Z,12.93
2018-10-17T05:13:27.571Z,12.33
2018-10-17T05:15:54.417Z,12.07
2018-10-17T05:18:21.263Z,13.03
2018-10-17T05:20:48.099Z,12.40
2018-10-17T05:23:15.024Z,14.00
2018-10-17T05:25:41.794Z,14.50
2018-10-17T05:28:08.635Z,16.30
2018-10-17T05:30:35.737Z,16.50
2018-10-17T05:33:02.582Z,16.30
2018-10-17T05:35:29.427Z,14.93
2018-10-17T05:37:56.347Z,15.33
2018-10-17T05:40:23.126Z,14.70
2018-10-17T05:42:49.974Z,14.53
2018-10-17T05:45:16.828Z,13.13
2018-10-17T05:47:43.670Z,13.53
2018-10-17T05:50:10.514Z,15.20
2018-10-17T05:52:37.397Z,15.00
2018-10-17T05:55:04.581Z,16.17
2018-10-17T05:57:31.370Z,15.93
2018-10-17T05:59:58.320Z,18.10
2018-10-17T06:02:28.408Z,17.13
2018-10-17T06:04:55.372Z,15.57
2018-10-17T06:07:22.275Z,15.53
2018-10-17T06:09:49.228Z,14.70
2018-10-17T06:12:16.374Z,14.00
2018-10-17T06:14:43.302Z,13.73
2018-10-17T06:17:10.277Z,14.30
2018-10-17T06:19:37.191Z,14.10
2018-10-17T06:22:04.174Z,12.80
2018-10-17T06:24:31.067Z,14.20
2018-10-17T06:26:57.923Z,14.10
2018-10-17T06:29:24.766Z,14.30
2018-10-17T06:31:51.727Z,13.63
2018-10-17T06:34:18.673Z,16.00
2018-10-17T06:36:45.507Z,16.77
2018-10-17T06:39:12.455Z,18.90
2018-10-17T06:41:39.486Z,23.40
2018-10-17T06:44:06.820Z,23.77
2018-10-17T06:46:33.593Z,26.60
2018-10-17T06:49:00.439Z,24.30
2018-10-17T06:51:27.284Z,25.50
2018-10-17T06:53:54.203Z,25.67
2018-10-17T06:56:20.958Z,25.20
2018-10-17T06:58:47.794Z,26.37
2018-10-17T07:01:14.726Z,26.37
2018-10-17T07:03:41.503Z,27.67
2018-10-17T07:06:08.346Z,25.70
2018-10-17T07:08:35.271Z,27.70
2018-10-17T07:11:02.200Z,26.43
2018-10-17T07:13:29.055Z,28.20
2018-10-17T07:15:55.994Z,24.27
2018-10-17T07:18:22.845Z,22.80
2018-10-17T07:20:49.682Z,22.73
2018-10-17T07:23:16.607Z,20.97
2018-10-17T07:25:43.349Z,21.07
2018-10-17T07:28:10.172Z,21.70
2018-10-17T07:30:37.027Z,22.10
2018-10-17T07:33:03.981Z,22.30
2018-10-17T07:35:30.880Z,21.00
2018-10-17T07:37:57.650Z,19.67
2018-10-17T07:40:24.474Z,20.70
2018-10-17T07:42:51.320Z,22.27
2018-10-17T07:45:18.157Z,25.07
2018-10-17T07:47:45.147Z,26.70
2018-10-17T07:50:12.120Z,26.13
2018-10-17T07:52:39.247Z,25.10
2018-10-17T07:55:07.194Z,28.83
2018-10-17T07:57:34.027Z,29.33
2018-10-17T08:00:00.934Z,29.93
2018-10-17T08:02:27.715Z,32.08
2018-10-17T08:04:54.555Z,27.47
2018-10-17T08:07:21.426Z,28.57
2018-10-17T08:09:48.290Z,22.00
2018-10-17T08:12:15.229Z,22.87
2018-10-17T08:14:42.087Z,19.13
2018-10-17T08:17:09.310Z,20.20
2018-10-17T08:19:36.163Z,20.70
2018-10-17T08:22:03.374Z,21.73
2018-10-17T08:24:30.195Z,22.20
2018-10-17T08:26:57.059Z,20.67
2018-10-17T08:29:23.904Z,21.50
2018-10-17T08:31:50.747Z,22.80
2018-10-17T08:34:17.600Z,21.67
2018-10-17T08:36:44.776Z,21.73
2018-10-17T08:39:11.303Z,23.38
2018-10-17T08:41:38.126Z,22.93
2018-10-17T08:44:05.046Z,23.43
2018-10-17T08:46:31.859Z,21.13
2018-10-17T08:48:58.706Z,20.00
2018-10-17T08:51:25.555Z,20.87
2018-10-17T08:53:52.387Z,20.20
2018-10-17T08:56:19.255Z,20.03
2018-10-17T08:58:46.089Z,19.73
2018-10-17T09:01:12.931Z,19.03
2018-10-17T09:03:39.778Z,19.13
2018-10-17T09:06:06.720Z,20.10
2018-10-17T09:08:33.480Z,20.10
2018-10-17T09:11:00.334Z,21.62
2018-10-17T09:13:27.234Z,21.42
2018-10-17T09:15:54.030Z,19.33
2018-10-17T09:18:20.907Z,18.40
2018-10-17T09:20:48.002Z,18.13
2018-10-17T09:23:14.574Z,19.70
2018-10-17T09:25:41.416Z,19.98
2018-10-17T09:28:08.334Z,18.37
2018-10-17T09:30:35.146Z,17.50
2018-10-17T09:33:01.964Z,17.10
2018-10-17T09:35:28.859Z,17.47
2018-10-17T09:37:55.658Z,15.67
2018-10-17T09:40:22.506Z,16.37
2018-10-17T09:42:49.350Z,17.63
2018-10-17T09:45:16.196Z,15.90
2018-10-17T09:47:43.040Z,16.80
2018-10-17T09:50:10.404Z,15.63
2018-10-17T09:52:37.198Z,16.53
2018-10-17T09:55:04.487Z,15.10
2018-10-17T09:57:31.339Z,16.07
2018-10-17T09:59:58.191Z,16.37
2018-10-17T10:02:25.201Z,16.90
2018-10-17T10:04:51.875Z,15.10
2018-10-17T10:07:18.718Z,15.53
2018-10-17T10:09:45.559Z,18.98
2018-10-17T10:12:12.500Z,19.20
2018-10-17T10:17:20.106Z,19.10
2018-10-17T10:19:46.839Z,18.70
2018-10-17T10:22:13.714Z,18.40
2018-10-17T10:24:40.654Z,19.33
2018-10-17T10:27:07.538Z,17.53
2018-10-17T10:29:34.500Z,17.53
2018-10-17T10:32:01.335Z,18.93
2018-10-17T10:34:28.282Z,17.27
2018-10-17T10:36:55.215Z,18.50
2018-10-17T10:39:22.163Z,18.27
2018-10-17T10:41:49.098Z,16.97
2018-10-17T10:44:15.988Z,17.33
2018-10-17T10:46:42.887Z,17.60
2018-10-17T10:49:09.784Z,15.80
2018-10-17T10:51:36.761Z,16.30
2018-10-17T10:54:03.672Z,18.40
2018-10-17T10:56:30.585Z,17.37
2018-10-17T10:58:57.532Z,17.70
2018-10-17T11:01:24.446Z,18.33
2018-10-17T11:03:51.390Z,17.47
2018-10-17T11:06:18.235Z,17.70
2018-10-17T11:08:45.070Z,17.30
2018-10-17T11:11:11.965Z,17.40
2018-10-17T11:13:38.788Z,18.43
2018-10-17T11:16:06.255Z,17.70
2018-10-17T11:18:33.117Z,17.80
2018-10-17T11:21:00.000Z,16.53
2018-10-17T11:23:26.863Z,16.10
2018-10-17T11:25:53.730Z,15.50
2018-10-17T11:28:20.566Z,16.13
2018-10-17T11:30:48.542Z,16.10
2018-10-17T11:33:15.438Z,14.17
2018-10-17T11:35:42.233Z,13.90
2018-10-17T11:38:09.075Z,15.60
2018-10-17T11:40:35.996Z,15.77
2018-10-17T11:43:02.771Z,15.13
2018-10-17T11:45:29.630Z,16.37
2018-10-17T11:47:56.452Z,15.60
2018-10-17T11:50:23.360Z,16.60
2018-10-17T11:52:50.182Z,15.00
2018-10-17T11:55:17.071Z,14.57
2018-10-17T11:57:43.983Z,14.20
2018-10-17T12:00:12.154Z,13.30
2018-10-17T12:02:39.003Z,14.50
2018-10-17T12:05:08.546Z,14.77
2018-10-17T12:07:35.374Z,13.63
2018-10-17T12:10:02.457Z,13.30
2018-10-17T12:12:29.469Z,12.47
2018-10-17T12:14:56.469Z,13.88
2018-10-17T12:17:23.374Z,12.63
2018-10-17T12:19:50.335Z,12.73
2018-10-17T12:22:17.273Z,13.40
2018-10-17T12:24:44.216Z,12.20
2018-10-17T12:27:11.121Z,14.60
2018-10-17T12:29:38.096Z,13.20
2018-10-17T12:32:05.174Z,13.00
2018-10-17T12:34:32.114Z,12.00
2018-10-17T12:36:59.142Z,13.93
2018-10-17T12:39:26.119Z,12.43
2018-10-17T12:41:52.903Z,11.87
2018-10-17T12:44:19.930Z,12.60
2018-10-17T12:46:46.762Z,12.10
2018-10-17T12:49:13.846Z,12.70
2018-10-17T12:51:40.740Z,13.37
2018-10-17T12:54:07.632Z,13.70
2018-10-17T12:56:34.699Z,12.70
2018-10-17T12:59:01.684Z,13.50
2018-10-17T13:01:28.542Z,12.40
2018-10-17T13:03:55.503Z,12.27
2018-10-17T13:06:22.489Z,11.73
2018-10-17T13:08:49.377Z,12.67
2018-10-17T13:11:16.433Z,13.45
2018-10-17T13:13:43.170Z,12.93
2018-10-17T13:16:10.115Z,12.27
2018-10-17T13:18:37.083Z,12.27
2018-10-17T13:21:04.527Z,13.03
2018-10-17T13:23:31.536Z,12.67
2018-10-17T13:25:58.707Z,12.03
2018-10-17T13:28:25.551Z,12.77
2018-10-17T13:30:52.541Z,12.00
2018-10-17T13:33:19.546Z,11.80
2018-10-17T13:35:47.427Z,11.43
2018-10-17T13:38:14.351Z,11.23
2018-10-17T13:40:41.319Z,11.33
2018-10-17T13:43:08.310Z,12.90
2018-10-17T13:45:35.215Z,10.73
2018-10-17T13:48:02.148Z,11.10
2018-10-17T13:50:29.075Z,10.33
2018-10-17T13:52:56.040Z,10.03
2018-10-17T13:55:22.945Z,9.50
2018-10-17T13:57:49.915Z,9.70
2018-10-17T14:00:16.676Z,10.70
2018-10-17T14:02:43.999Z,8.83
2018-10-17T14:05:10.847Z,8.60
2018-10-17T14:07:37.795Z,8.50
2018-10-17T14:10:05.063Z,8.40
2018-10-17T14:12:32.055Z,8.20
2018-10-17T14:14:59.087Z,8.70
2018-10-17T14:17:25.903Z,8.10
2018-10-17T14:19:52.930Z,9.20
2018-10-17T14:22:19.887Z,9.20
2018-10-17T14:24:46.820Z,8.57
2018-10-17T14:27:13.860Z,8.33
2018-10-17T14:29:40.650Z,7.67
2018-10-17T14:32:07.547Z,8.67
2018-10-17T14:34:34.423Z,8.60
2018-10-17T14:37:01.333Z,8.30
2018-10-17T14:39:28.295Z,8.63
2018-10-17T14:41:55.021Z,9.40
2018-10-17T14:44:21.960Z,9.00
2018-10-17T14:46:48.814Z,9.10
2018-10-17T14:49:15.766Z,8.57
2018-10-17T14:51:42.717Z,9.57
2018-10-17T14:54:09.719Z,8.23
2018-10-17T14:56:36.595Z,9.33
2018-10-17T14:59:03.659Z,9.83
2018-10-17T15:01:30.555Z,8.90
2018-10-17T15:03:57.438Z,9.70
2018-10-17T15:06:24.366Z,9.70
2018-10-17T15:08:51.264Z,10.20
2018-10-17T15:11:18.279Z,10.03
2018-10-17T15:13:45.094Z,10.00
2018-10-17T15:16:11.951Z,10.70
2018-10-17T15:18:38.879Z,11.70
2018-10-17T15:21:05.803Z,10.63
2018-10-17T15:23:32.672Z,12.60
2018-10-17T15:25:59.511Z,12.50
2018-10-17T15:28:26.355Z,11.23
2018-10-17T15:30:53.302Z,10.93
2018-10-17T15:33:20.143Z,11.70
2018-10-17T15:35:46.988Z,12.40
2018-10-17T15:38:13.930Z,11.87
2018-10-17T15:40:40.787Z,12.40
2018-10-17T15:43:07.668Z,12.10
2018-10-17T15:45:34.478Z,12.28
2018-10-17T15:48:01.399Z,13.27
2018-10-17T15:50:29.274Z,12.30
2018-10-17T15:52:56.138Z,12.80
2018-10-17T15:55:22.979Z,12.27
2018-10-17T15:57:49.898Z,13.87
2018-10-17T16:00:17.859Z,12.03
2018-10-17T16:02:45.719Z,13.07
2018-10-17T16:05:12.494Z,12.60
2018-10-17T16:07:40.862Z,12.23
2018-10-17T16:10:08.119Z,12.97
2018-10-17T16:12:35.071Z,12.50
2018-10-17T16:15:01.991Z,13.17
2018-10-17T16:17:29.042Z,12.23
2018-10-17T16:19:55.921Z,12.47
2018-10-17T16:22:22.888Z,13.17
2018-10-17T16:24:49.783Z,12.30
2018-10-17T16:27:16.646Z,12.83
2018-10-17T16:29:43.543Z,12.70
2018-10-17T16:32:10.464Z,12.13
2018-10-17T16:34:37.255Z,13.25
2018-10-17T16:37:04.336Z,12.23
2018-10-17T16:39:31.255Z,12.17
2018-10-17T16:41:58.178Z,11.63
2018-10-17T16:44:25.003Z,11.60
2018-10-17T16:46:51.933Z,12.07
2018-10-17T16:49:18.803Z,12.40
2018-10-17T16:51:45.651Z,11.40
2018-10-17T16:54:12.600Z,12.10
2018-10-17T16:56:39.368Z,11.70
2018-10-17T16:59:06.218Z,11.77
2018-10-17T17:01:33.093Z,10.90
2018-10-17T17:04:00.021Z,11.77
2018-10-17T17:06:26.903Z,11.20
2018-10-17T17:08:53.781Z,13.00
2018-10-17T17:11:20.626Z,12.70
2018-10-17T17:13:47.475Z,11.67
2018-10-17T17:16:14.366Z,10.60
2018-10-17T17:18:41.214Z,11.67
2018-10-17T17:21:08.120Z,10.70
2018-10-17T17:23:34.928Z,11.33
2018-10-17T17:26:01.813Z,10.60
2018-10-17T17:28:28.678Z,11.77
2018-10-17T17:30:55.542Z,11.90
2018-10-17T17:33:22.390Z,12.80
2018-10-17T17:35:49.254Z,11.90
2018-10-17T17:38:16.127Z,11.33
2018-10-17T17:40:42.983Z,12.60
2018-10-17T17:43:09.854Z,12.50
2018-10-17T17:45:36.732Z,12.70
2018-10-17T17:48:03.607Z,13.37
2018-10-17T17:50:30.487Z,12.93
2018-10-17T17:52:57.364Z,13.27
2018-10-17T17:55:24.704Z,12.87
2018-10-17T17:57:51.664Z,12.50
2018-10-17T18:00:18.501Z,12.60
2018-10-17T18:02:45.364Z,13.27
2018-10-17T18:05:12.264Z,13.20
2018-10-17T18:07:39.131Z,12.50
2018-10-17T18:10:06.630Z,13.67
2018-10-17T18:12:37.232Z,13.00
2018-10-17T18:15:05.209Z,13.03
2018-10-17T18:17:32.071Z,13.23
2018-10-17T18:19:58.933Z,15.32
2018-10-17T18:22:25.869Z,15.00
2018-10-17T18:24:52.658Z,15.10
2018-10-17T18:27:19.595Z,15.00
2018-10-17T18:29:46.457Z,14.97
2018-10-17T18:32:13.315Z,15.30
2018-10-17T18:34:40.179Z,14.70
2018-10-17T18:37:07.107Z,15.87
2018-10-17T18:39:34.071Z,16.27
2018-10-17T18:42:00.956Z,17.05
2018-10-17T18:44:27.951Z,17.25
2018-10-17T18:46:55.810Z,14.37
2018-10-17T18:49:22.672Z,15.77
2018-10-17T18:51:49.539Z,13.57
2018-10-17T18:54:16.401Z,12.80
2018-10-17T18:56:43.281Z,14.60
2018-10-17T18:59:10.171Z,13.33
2018-10-17T19:01:37.149Z,14.10
2018-10-17T19:04:04.331Z,14.20
2018-10-17T19:06:31.186Z,14.20
2018-10-17T19:08:58.056Z,15.20
2018-10-17T19:11:24.930Z,14.10
2018-10-17T19:13:51.783Z,14.63
2018-10-17T19:16:18.685Z,16.55
2018-10-17T19:18:45.503Z,14.80
2018-10-17T19:21:12.433Z,13.93
2018-10-17T19:23:39.522Z,15.30
2018-10-17T19:26:06.420Z,15.20
2018-10-17T19:28:33.299Z,16.57
2018-10-17T19:31:00.173Z,14.60
2018-10-17T19:33:27.047Z,15.57
2018-10-17T19:35:53.962Z,14.77
2018-10-17T19:38:20.800Z,15.43
2018-10-17T19:40:47.920Z,15.20
2018-10-17T19:43:14.811Z,16.40
2018-10-17T19:45:41.648Z,16.27
2018-10-17T19:48:08.539Z,16.33
2018-10-17T19:50:35.454Z,14.50
2018-10-17T19:53:02.364Z,15.20
2018-10-17T19:55:29.215Z,14.47
2018-10-17T19:57:56.064Z,15.23
2018-10-17T20:00:22.971Z,14.47
2018-10-17T20:02:50.479Z,14.23
2018-10-17T20:05:17.340Z,14.20
2018-10-17T20:07:44.299Z,14.57
2018-10-17T20:10:11.123Z,14.43
2018-10-17T20:12:38.019Z,15.40
2018-10-17T20:15:05.596Z,16.13
2018-10-17T20:17:32.427Z,14.80
2018-10-17T20:19:59.279Z,16.50
2018-10-17T20:22:26.155Z,15.30
2018-10-17T20:24:53.089Z,16.70
2018-10-17T20:27:19.987Z,17.40
2018-10-17T20:29:46.855Z,15.40
2018-10-17T20:32:13.739Z,16.60
2018-10-17T20:34:40.599Z,16.43
2018-10-17T20:37:07.472Z,16.47
2018-10-17T20:39:34.327Z,15.90
2018-10-17T20:42:01.281Z,15.67
2018-10-17T20:44:28.412Z,16.17
2018-10-17T20:46:55.291Z,16.53
2018-10-17T20:49:22.148Z,16.30
2018-10-17T20:51:48.998Z,15.23
2018-10-17T20:54:15.858Z,15.03
2018-10-17T20:56:42.711Z,15.03
2018-10-17T20:59:09.618Z,15.70
2018-10-17T21:01:36.593Z,17.70
2018-10-17T21:04:03.496Z,16.87
2018-10-17T21:06:30.344Z,16.80
2018-10-17T21:08:57.195Z,16.67
2018-10-17T21:11:24.125Z,16.67
2018-10-17T21:13:50.919Z,15.83
2018-10-17T21:16:17.835Z,17.60
2018-10-17T21:18:44.765Z,17.90
2018-10-17T21:21:11.559Z,17.73
2018-10-17T21:23:38.423Z,20.17
2018-10-17T21:26:05.341Z,18.17
2018-10-17T21:28:32.206Z,17.50
2018-10-17T21:30:59.055Z,15.90
2018-10-17T21:33:25.911Z,17.17
2018-10-17T21:35:52.974Z,17.97
2018-10-17T21:38:19.962Z,17.50
2018-10-17T21:40:46.744Z,16.50
2018-10-17T21:43:13.607Z,19.00
2018-10-17T21:45:40.474Z,18.80
2018-10-17T21:48:07.335Z,17.97
2018-10-17T21:50:34.235Z,16.93
2018-10-17T21:53:01.101Z,18.93
2018-10-17T21:55:27.947Z,18.17
2018-10-17T21:57:54.816Z,19.10
2018-10-17T22:00:21.663Z,19.20
2018-10-17T22:02:48.531Z,19.83
2018-10-17T22:05:15.384Z,19.07
2018-10-17T22:07:42.247Z,18.33
2018-10-17T22:10:09.222Z,18.80
2018-10-17T22:12:36.264Z,17.87
2018-10-17T22:15:03.943Z,18.33
2018-10-17T22:17:30.812Z,20.00
2018-10-17T22:19:57.783Z,18.00
2018-10-17T22:22:25.039Z,19.17
2018-10-17T22:24:52.492Z,18.63
2018-10-17T22:27:19.571Z,17.90
2018-10-17T22:29:46.473Z,18.23
2018-10-17T22:32:14.341Z,18.70
2018-10-17T22:34:41.203Z,18.70
2018-10-17T22:37:08.079Z,18.57
2018-10-17T22:39:34.991Z,17.97
2018-10-17T22:42:01.843Z,19.70
2018-10-17T22:44:28.711Z,21.65
2018-10-17T22:46:55.575Z,21.23
2018-10-17T22:49:22.433Z,18.00
2018-10-17T22:51:49.300Z,19.83
2018-10-17T22:54:16.158Z,19.47
2018-10-17T22:56:43.015Z,19.90
2018-10-17T22:59:09.878Z,19.73
2018-10-17T23:01:37.251Z,20.80
2018-10-17T23:04:04.479Z,21.27
2018-10-17T23:06:31.331Z,21.23
2018-10-17T23:08:58.198Z,21.00
2018-10-17T23:11:25.071Z,21.00
2018-10-17T23:13:52.001Z,20.63
2018-10-17T23:16:18.859Z,20.20
2018-10-17T23:18:45.724Z,20.20
2018-10-17T23:21:12.611Z,21.13
2018-10-17T23:23:39.484Z,23.20
2018-10-17T23:26:06.741Z,20.70
2018-10-17T23:28:33.579Z,19.93
2018-10-17T23:31:01.424Z,19.40
2018-10-17T23:33:28.285Z,20.40
2018-10-17T23:35:55.138Z,19.53
2018-10-17T23:38:21.999Z,20.30
2018-10-17T23:40:48.861Z,19.80
2018-10-17T23:43:15.721Z,19.33
2018-10-17T23:45:43.602Z,20.53
2018-10-17T23:48:10.560Z,20.67
2018-10-17T23:50:37.979Z,20.30
2018-10-17T23:53:04.943Z,20.20
2018-10-17T23:55:31.813Z,20.27
2018-10-17T23:57:58.669Z,20.07
